createdAt,value
2018-08-09T00:00:28.803Z,92.34
2018-08-09T00:01:37.070Z,92.82
2018-08-09T00:02:45.110Z,92.72
2018-08-09T00:03:53.363Z,92.63
2018-08-09T00:05:01.259Z,92.44
2018-08-09T00:06:09.340Z,92.63
2018-08-09T00:07:17.378Z,93.01
2018-08-09T00:08:25.443Z,93.11
2018-08-09T00:09:33.526Z,93.40
2018-08-09T00:10:41.600Z,92.72
2018-08-09T00:11:49.764Z,92.82
2018-08-09T00:12:57.745Z,92.54
2018-08-09T00:14:05.788Z,93.40
2018-08-09T00:15:13.883Z,92.82
2018-08-09T00:16:25.319Z,93.01
2018-08-09T00:17:30.021Z,93.06
2018-08-09T00:18:38.100Z,93.21
2018-08-09T00:19:46.506Z,93.01
2018-08-09T00:20:55.686Z,93.16
2018-08-09T00:22:02.309Z,93.44
2018-08-09T00:23:11.420Z,93.21
2018-08-09T00:24:18.452Z,93.54
2018-08-09T00:25:26.538Z,93.54
2018-08-09T00:26:34.595Z,93.63
2018-08-09T00:27:42.670Z,93.54
2018-08-09T00:28:50.744Z,93.49
2018-08-09T00:29:58.815Z,93.16
2018-08-09T00:31:06.884Z,92.91
2018-08-09T00:32:14.969Z,93.01
2018-08-09T00:33:23.031Z,93.26
2018-08-09T00:34:32.502Z,93.06
2018-08-09T00:35:39.364Z,93.01
2018-08-09T00:36:50.198Z,93.49
2018-08-09T00:37:58.130Z,92.82
2018-08-09T00:39:06.203Z,92.91
2018-08-09T00:40:14.283Z,93.21
2018-08-09T00:41:22.332Z,93.30
2018-08-09T00:42:30.411Z,93.40
2018-08-09T00:43:38.471Z,93.30
2018-08-09T00:44:46.598Z,92.91
2018-08-09T00:45:54.617Z,93.40
2018-08-09T00:47:03.961Z,93.40
2018-08-09T00:48:10.757Z,93.40
2018-08-09T00:49:18.859Z,93.01
2018-08-09T00:50:27.171Z,93.11
2018-08-09T00:51:34.994Z,92.86
2018-08-09T00:52:43.055Z,92.58
2018-08-09T00:53:51.160Z,92.77
2018-08-09T00:54:59.479Z,92.77
2018-08-09T00:56:07.278Z,92.58
2018-08-09T00:57:15.310Z,92.58
2018-08-09T00:58:23.416Z,92.96
2018-08-09T00:59:31.467Z,91.91
2018-08-09T01:00:41.065Z,92.48
2018-08-09T01:01:47.631Z,92.58
2018-08-09T01:02:55.664Z,92.48
2018-08-09T01:04:03.769Z,91.91
2018-08-09T01:05:11.852Z,91.91
2018-08-09T01:06:19.907Z,92.58
2018-08-09T01:07:28.000Z,92.00
2018-08-09T01:08:36.136Z,91.91
2018-08-09T01:09:44.142Z,92.58
2018-08-09T01:10:52.215Z,92.19
2018-08-09T01:12:00.388Z,92.19
2018-08-09T01:13:08.741Z,91.91
2018-08-09T01:14:16.431Z,91.91
2018-08-09T01:15:24.484Z,91.91
2018-08-09T01:16:32.549Z,92.00
2018-08-09T01:17:40.634Z,91.91
2018-08-09T01:18:48.700Z,91.81
2018-08-09T01:19:57.975Z,91.81
2018-08-09T01:21:04.838Z,91.81
2018-08-09T01:22:12.930Z,91.81
2018-08-09T01:23:20.994Z,91.81
2018-08-09T01:24:29.079Z,92.00
2018-08-09T01:25:37.693Z,92.10
2018-08-09T01:26:45.430Z,92.10
2018-08-09T01:27:53.488Z,91.81
2018-08-09T01:29:01.585Z,92.29
2018-08-09T01:30:09.626Z,91.91
2018-08-09T01:31:17.712Z,91.91
2018-08-09T01:32:25.744Z,92.58
2018-08-09T01:33:34.874Z,92.19
2018-08-09T01:34:41.922Z,92.58
2018-08-09T01:35:49.995Z,92.86
2018-08-09T01:36:58.047Z,92.77
2018-08-09T01:38:06.112Z,92.91
2018-08-09T01:39:14.212Z,92.86
2018-08-09T01:40:22.279Z,92.68
2018-08-09T01:41:30.391Z,93.15
2018-08-09T01:42:38.431Z,93.40
2018-08-09T01:43:46.488Z,93.30
2018-08-09T01:44:54.559Z,92.82
2018-08-09T01:46:02.626Z,92.63
2018-08-09T01:47:10.969Z,93.11
2018-08-09T01:48:22.223Z,92.72
2018-08-09T01:49:26.861Z,93.21
2018-08-09T01:50:34.949Z,93.30
2018-08-09T01:51:42.986Z,93.30
2018-08-09T01:52:51.093Z,93.40
2018-08-09T01:53:59.131Z,93.59
2018-08-09T01:55:07.199Z,92.91
2018-08-09T01:56:15.252Z,93.59
2018-08-09T01:57:24.750Z,93.78
2018-08-09T01:58:31.401Z,92.82
2018-08-09T01:59:39.480Z,94.07
2018-08-09T02:00:47.545Z,93.78
2018-08-09T02:01:55.594Z,93.78
2018-08-09T02:03:03.695Z,93.63
2018-08-09T02:04:11.772Z,93.73
2018-08-09T02:05:20.131Z,93.44
2018-08-09T02:06:28.125Z,93.97
2018-08-09T02:07:36.192Z,93.35
2018-08-09T02:08:44.284Z,93.73
2018-08-09T02:09:52.514Z,93.73
2018-08-09T02:11:00.614Z,93.73
2018-08-09T02:12:08.673Z,93.93
2018-08-09T02:13:16.748Z,93.63
2018-08-09T02:14:24.814Z,93.44
2018-08-09T02:15:32.895Z,93.54
2018-08-09T02:16:40.965Z,94.02
2018-08-09T02:17:49.084Z,93.35
2018-08-09T02:18:57.143Z,93.63
2018-08-09T02:20:05.160Z,93.44
2018-08-09T02:21:13.607Z,93.83
2018-08-09T02:22:21.691Z,94.12
2018-08-09T02:23:29.371Z,93.63
2018-08-09T02:24:37.516Z,94.12
2018-08-09T02:25:45.513Z,94.02
2018-08-09T02:26:53.585Z,94.12
2018-08-09T02:28:01.666Z,94.21
2018-08-09T02:29:09.743Z,93.93
2018-08-09T02:30:17.897Z,94.50
2018-08-09T02:31:25.851Z,93.83
2018-08-09T02:32:33.938Z,94.02
2018-08-09T02:33:42.035Z,94.02
2018-08-09T02:34:50.085Z,93.54
2018-08-09T02:35:58.182Z,93.93
2018-08-09T02:37:06.219Z,93.44
2018-08-09T02:38:14.388Z,93.54
2018-08-09T02:39:22.364Z,93.83
2018-08-09T02:40:30.432Z,93.54
2018-08-09T02:41:38.533Z,93.83
2018-08-09T02:42:46.566Z,93.63
2018-08-09T02:43:54.650Z,93.73
2018-08-09T02:45:02.719Z,94.40
2018-08-09T02:46:10.783Z,94.40
2018-08-09T02:47:19.143Z,94.02
2018-08-09T02:48:26.937Z,93.63
2018-08-09T02:49:35.112Z,94.21
2018-08-09T02:50:43.078Z,93.83
2018-08-09T02:51:51.162Z,94.21
2018-08-09T02:52:59.213Z,94.02
2018-08-09T02:54:07.312Z,93.98
2018-08-09T02:55:15.338Z,94.21
2018-08-09T02:56:23.465Z,94.12
2018-08-09T02:57:31.501Z,94.21
2018-08-09T02:58:39.596Z,94.21
2018-08-09T02:59:47.651Z,94.31
2018-08-09T03:00:55.860Z,93.93
2018-08-09T03:02:03.783Z,94.02
2018-08-09T03:03:11.878Z,94.21
2018-08-09T03:04:20.210Z,94.02
2018-08-09T03:05:28.460Z,94.02
2018-08-09T03:06:36.262Z,94.02
2018-08-09T03:07:44.317Z,93.54
2018-08-09T03:08:52.405Z,93.54
2018-08-09T03:10:00.490Z,94.02
2018-08-09T03:11:10.017Z,93.35
2018-08-09T03:12:16.613Z,93.54
2018-08-09T03:13:28.239Z,92.87
2018-08-09T03:14:33.356Z,93.54
2018-08-09T03:15:40.821Z,93.93
2018-08-09T03:16:48.889Z,93.83
2018-08-09T03:17:56.970Z,94.02
2018-08-09T03:19:05.025Z,93.54
2018-08-09T03:20:13.121Z,94.40
2018-08-09T03:21:21.553Z,94.17
2018-08-09T03:22:29.323Z,94.07
2018-08-09T03:23:37.596Z,93.98
2018-08-09T03:24:45.442Z,93.88
2018-08-09T03:25:53.551Z,93.88
2018-08-09T03:27:01.537Z,93.88
2018-08-09T03:28:09.953Z,93.69
2018-08-09T03:29:17.667Z,93.98
2018-08-09T03:30:28.948Z,93.98
2018-08-09T03:31:33.816Z,93.88
2018-08-09T03:32:41.973Z,94.17
2018-08-09T03:33:49.960Z,94.26
2018-08-09T03:34:58.403Z,93.69
2018-08-09T03:36:06.084Z,93.98
2018-08-09T03:37:14.191Z,93.78
2018-08-09T03:38:22.250Z,94.07
2018-08-09T03:39:30.335Z,93.88
2018-08-09T03:40:38.385Z,94.35
2018-08-09T03:41:46.699Z,94.12
2018-08-09T03:42:54.538Z,93.59
2018-08-09T03:44:02.632Z,92.78
2018-08-09T03:45:10.847Z,92.87
2018-08-09T03:46:18.759Z,93.74
2018-08-09T03:47:26.903Z,93.64
2018-08-09T03:48:34.999Z,93.83
2018-08-09T03:49:42.945Z,93.93
2018-08-09T03:50:51.016Z,93.93
2018-08-09T03:51:59.465Z,93.54
2018-08-09T03:53:07.362Z,93.74
2018-08-09T03:54:15.414Z,93.64
2018-08-09T03:55:23.520Z,93.74
2018-08-09T03:56:31.628Z,94.31
2018-08-09T03:57:39.656Z,93.54
2018-08-09T03:58:47.713Z,93.74
2018-08-09T03:59:55.773Z,93.54
2018-08-09T04:01:04.174Z,93.45
2018-08-09T04:02:12.138Z,93.64
2018-08-09T04:03:20.192Z,93.54
2018-08-09T04:04:28.264Z,93.74
2018-08-09T04:05:36.365Z,93.93
2018-08-09T04:06:44.774Z,93.74
2018-08-09T04:07:52.506Z,93.54
2018-08-09T04:09:01.277Z,93.54
2018-08-09T04:10:12.075Z,93.64
2018-08-09T04:11:16.706Z,93.83
2018-08-09T04:12:24.834Z,93.74
2018-08-09T04:13:32.824Z,93.93
2018-08-09T04:14:40.899Z,93.45
2018-08-09T04:15:48.965Z,93.54
2018-08-09T04:16:57.136Z,93.16
2018-08-09T04:18:05.289Z,93.07
2018-08-09T04:19:15.360Z,93.45
2018-08-09T04:20:21.670Z,92.97
2018-08-09T04:21:29.749Z,93.26
2018-08-09T04:22:38.108Z,92.97
2018-08-09T04:23:45.825Z,92.11
2018-08-09T04:24:53.913Z,92.21
2018-08-09T04:26:01.965Z,92.49
2018-08-09T04:27:10.308Z,92.11
2018-08-09T04:28:18.105Z,91.92
2018-08-09T04:29:27.190Z,91.92
2018-08-09T04:30:34.265Z,91.92
2018-08-09T04:31:42.579Z,92.40
2018-08-09T04:32:51.878Z,92.30
2018-08-09T04:33:58.448Z,92.78
2018-08-09T04:35:06.785Z,92.30
2018-08-09T04:36:14.792Z,93.07
2018-08-09T04:37:22.877Z,92.87
2018-08-09T04:38:30.918Z,92.97
2018-08-09T04:39:39.709Z,92.30
2018-08-09T04:40:47.060Z,92.40
2018-08-09T04:41:55.140Z,92.11
2018-08-09T04:43:03.954Z,92.11
2018-08-09T04:44:11.287Z,92.21
2018-08-09T04:45:19.376Z,92.49
2018-08-09T04:46:27.443Z,92.11
2018-08-09T04:47:35.443Z,92.30
2018-08-09T04:48:43.514Z,92.30
2018-08-09T04:49:51.656Z,91.92
2018-08-09T04:51:00.556Z,92.30
2018-08-09T04:52:07.720Z,92.21
2018-08-09T04:53:15.839Z,92.11
2018-08-09T04:54:23.869Z,91.92
2018-08-09T04:55:31.949Z,91.92
2018-08-09T04:56:39.994Z,92.11
2018-08-09T04:57:48.095Z,92.30
2018-08-09T04:58:56.344Z,91.63
2018-08-09T05:00:04.422Z,91.82
2018-08-09T05:01:12.481Z,91.96
2018-08-09T05:02:20.540Z,91.82
2018-08-09T05:03:28.616Z,92.06
2018-08-09T05:04:36.675Z,92.25
2018-08-09T05:05:46.141Z,91.96
2018-08-09T05:06:52.837Z,91.67
2018-08-09T05:08:00.894Z,91.96
2018-08-09T05:09:09.369Z,92.06
2018-08-09T05:10:17.088Z,91.77
2018-08-09T05:11:25.140Z,91.96
2018-08-09T05:12:33.170Z,91.96
2018-08-09T05:13:41.245Z,91.86
2018-08-09T05:14:49.290Z,91.96
2018-08-09T05:15:57.725Z,92.06
2018-08-09T05:17:05.625Z,92.06
2018-08-09T05:18:13.719Z,91.67
2018-08-09T05:19:21.877Z,91.49
2018-08-09T05:20:29.867Z,91.77
2018-08-09T05:21:37.911Z,91.67
2018-08-09T05:22:46.670Z,91.77
2018-08-09T05:23:55.441Z,91.58
2018-08-09T05:25:02.370Z,91.19
2018-08-09T05:26:10.188Z,91.49
2018-08-09T05:27:18.270Z,91.58
2018-08-09T05:28:34.960Z,91.05
2018-08-09T05:29:34.720Z,91.14
2018-08-09T05:30:42.502Z,91.34
2018-08-09T05:31:50.549Z,90.95
2018-08-09T05:33:02.115Z,91.05
2018-08-09T05:34:06.746Z,91.24
2018-08-09T05:35:14.789Z,90.95
2018-08-09T05:36:22.840Z,91.05
2018-08-09T05:37:30.942Z,91.14
2018-08-09T05:38:38.982Z,91.34
2018-08-09T05:39:47.072Z,91.14
2018-08-09T05:40:55.440Z,91.19
2018-08-09T05:42:03.209Z,91.19
2018-08-09T05:43:11.257Z,91.19
2018-08-09T05:44:19.340Z,91.38
2018-08-09T05:45:27.421Z,91.38
2018-08-09T05:46:35.459Z,91.38
2018-08-09T05:47:43.566Z,91.28
2018-08-09T05:48:51.836Z,90.52
2018-08-09T05:50:01.016Z,90.23
2018-08-09T05:51:07.971Z,90.28
2018-08-09T05:52:16.103Z,90.18
2018-08-09T05:53:24.116Z,90.47
2018-08-09T05:54:32.188Z,90.37
2018-08-09T05:55:40.254Z,90.66
2018-08-09T05:56:48.336Z,90.18
2018-08-09T05:57:56.427Z,89.89
2018-08-09T05:59:05.946Z,90.08
2018-08-09T06:00:12.756Z,90.13
2018-08-09T06:01:20.843Z,90.13
2018-08-09T06:02:29.033Z,89.84
2018-08-09T06:03:37.113Z,89.65
2018-08-09T06:04:45.053Z,89.94
2018-08-09T06:05:53.152Z,90.13
2018-08-09T06:07:01.199Z,90.22
2018-08-09T06:08:09.305Z,90.22
2018-08-09T06:09:17.333Z,90.27
2018-08-09T06:10:25.612Z,89.60
2018-08-09T06:11:33.692Z,89.02
2018-08-09T06:12:41.821Z,89.31
2018-08-09T06:13:49.842Z,90.08
2018-08-09T06:14:57.916Z,89.50
2018-08-09T06:16:05.972Z,89.31
2018-08-09T06:17:14.054Z,90.03
2018-08-09T06:18:22.121Z,89.16
2018-08-09T06:19:30.209Z,89.16
2018-08-09T06:20:38.295Z,90.03
2018-08-09T06:21:47.433Z,89.54
2018-08-09T06:22:54.428Z,89.45
2018-08-09T06:24:02.502Z,90.31
2018-08-09T06:25:12.345Z,88.78
2018-08-09T06:26:18.775Z,89.74
2018-08-09T06:27:26.946Z,89.78
2018-08-09T06:28:35.305Z,90.17
2018-08-09T06:29:43.092Z,88.34
2018-08-09T06:30:51.424Z,88.82
2018-08-09T06:31:59.254Z,88.06
2018-08-09T06:33:07.302Z,88.34
2018-08-09T06:34:15.378Z,86.61
2018-08-09T06:35:23.461Z,87.48
2018-08-09T06:36:31.526Z,88.63
2018-08-09T06:37:39.599Z,88.00
2018-08-09T06:38:47.870Z,88.19
2018-08-09T06:39:59.426Z,88.57
2018-08-09T06:41:05.397Z,88.39
2018-08-09T06:42:13.294Z,87.95
2018-08-09T06:43:27.439Z,86.89
2018-08-09T06:44:35.561Z,84.19
2018-08-09T06:45:40.273Z,86.45
2018-08-09T06:46:51.666Z,85.87
2018-08-09T06:47:56.278Z,86.55
2018-08-09T06:49:04.473Z,86.30
2018-08-09T06:50:12.435Z,85.14
2018-08-09T06:51:20.528Z,84.47
2018-08-09T06:52:28.579Z,83.94
2018-08-09T06:53:36.717Z,82.97
2018-08-09T06:54:48.762Z,83.26
2018-08-09T06:55:57.201Z,83.55
2018-08-09T06:57:05.168Z,82.87
2018-08-09T06:58:13.198Z,83.55
2018-08-09T06:59:21.271Z,83.84
2018-08-09T07:00:29.532Z,84.52
2018-08-09T07:01:41.169Z,83.84
2018-08-09T07:02:45.667Z,84.22
2018-08-09T07:03:53.749Z,83.55
2018-08-09T07:05:01.830Z,84.12
2018-08-09T07:06:11.467Z,84.32
2018-08-09T07:07:17.971Z,84.32
2018-08-09T07:08:26.060Z,84.52
2018-08-09T07:09:34.135Z,84.22
2018-08-09T07:10:42.231Z,85.09
2018-08-09T07:11:50.284Z,85.19
2018-08-09T07:12:58.372Z,84.70
2018-08-09T07:14:06.432Z,84.32
2018-08-09T07:15:14.619Z,84.99
2018-08-09T07:16:22.570Z,83.94
2018-08-09T07:17:30.647Z,85.19
2018-08-09T07:18:38.788Z,86.25
2018-08-09T07:19:46.928Z,84.61
2018-08-09T07:20:54.983Z,84.70
2018-08-09T07:22:02.978Z,84.42
2018-08-09T07:23:11.087Z,84.70
2018-08-09T07:24:19.114Z,83.36
2018-08-09T07:25:27.194Z,83.78
2018-08-09T07:26:35.261Z,83.98
2018-08-09T07:27:43.345Z,83.20
2018-08-09T07:28:51.423Z,81.80
2018-08-09T07:29:59.689Z,81.32
2018-08-09T07:31:08.740Z,78.36
2018-08-09T07:32:16.451Z,77.96
2018-08-09T07:33:24.554Z,75.39
2018-08-09T07:34:34.037Z,74.11
2018-08-09T07:35:40.763Z,72.15
2018-08-09T07:36:48.761Z,70.54
2018-08-09T07:37:56.824Z,69.79
2018-08-09T07:39:05.230Z,66.56
2018-08-09T07:40:12.973Z,65.47
2018-08-09T07:41:27.410Z,64.91
2018-08-09T07:42:29.142Z,64.91
2018-08-09T07:43:39.527Z,62.90
2018-08-09T07:44:45.275Z,63.13
2018-08-09T07:45:53.365Z,62.38
2018-08-09T07:47:01.460Z,59.39
2018-08-09T07:48:09.791Z,59.13
2018-08-09T07:49:18.241Z,58.45
2018-08-09T07:50:26.286Z,58.09
2018-08-09T07:51:34.380Z,56.43
2018-08-09T07:52:42.496Z,56.52
2018-08-09T07:53:53.180Z,56.92
2018-08-09T07:55:04.098Z,55.65
2018-08-09T07:56:11.422Z,54.48
2018-08-09T07:57:19.218Z,53.92
2018-08-09T07:58:27.311Z,55.51
2018-08-09T07:59:35.927Z,54.24
2018-08-09T08:00:43.476Z,52.58
2018-08-09T08:01:51.588Z,53.56
2018-08-09T08:02:59.904Z,53.56
2018-08-09T08:04:09.334Z,53.78
2018-08-09T08:05:17.403Z,53.09
2018-08-09T08:06:25.476Z,52.25
2018-08-09T08:07:33.661Z,52.34
2018-08-09T08:08:41.657Z,52.15
2018-08-09T08:09:49.893Z,50.10
2018-08-09T08:10:57.914Z,50.02
2018-08-09T08:12:05.913Z,52.34
2018-08-09T08:13:16.024Z,50.42
2018-08-09T08:14:22.742Z,51.59
2018-08-09T08:15:30.166Z,53.03
2018-08-09T08:16:41.806Z,52.37
2018-08-09T08:17:47.835Z,50.24
2018-08-09T08:18:55.592Z,51.22
2018-08-09T08:20:03.721Z,52.56
2018-08-09T08:21:11.826Z,49.46
2018-08-09T08:22:19.889Z,48.97
2018-08-09T08:23:27.963Z,45.06
2018-08-09T08:24:36.027Z,46.94
2018-08-09T08:25:44.147Z,48.19
2018-08-09T08:26:52.229Z,48.87
2018-08-09T08:28:00.345Z,51.61
2018-08-09T08:29:08.598Z,48.16
2018-08-09T08:30:20.185Z,48.36
2018-08-09T08:31:24.778Z,46.70
2018-08-09T08:32:32.917Z,46.14
2018-08-09T08:33:40.939Z,45.65
2018-08-09T08:34:49.044Z,48.99
2018-08-09T08:36:00.374Z,48.28
2018-08-09T08:37:05.207Z,47.14
2018-08-09T08:38:13.297Z,47.33
2018-08-09T08:39:21.444Z,46.47
2018-08-09T08:40:29.488Z,50.17
2018-08-09T08:41:37.631Z,47.06
2018-08-09T08:42:45.623Z,45.67
2018-08-09T08:43:53.748Z,45.84
2018-08-09T08:45:01.823Z,46.14
2018-08-09T08:46:09.892Z,46.43
2018-08-09T08:47:18.046Z,46.92
2018-08-09T08:48:27.107Z,47.77
2018-08-09T08:49:35.676Z,48.68
2018-08-09T08:50:42.303Z,48.41
2018-08-09T08:51:53.192Z,46.47
2018-08-09T08:52:58.633Z,46.45
2018-08-09T08:54:06.728Z,46.14
2018-08-09T08:55:14.862Z,47.11
2018-08-09T08:56:22.916Z,47.67
2018-08-09T08:57:30.988Z,46.80
2018-08-09T08:58:39.364Z,48.36
2018-08-09T08:59:47.178Z,49.04
2018-08-09T09:00:55.284Z,47.58
2018-08-09T09:02:03.429Z,48.65
2018-08-09T09:03:11.488Z,48.65
2018-08-09T09:04:19.577Z,50.90
2018-08-09T09:05:27.644Z,48.28
2018-08-09T09:06:35.666Z,49.33
2018-08-09T09:07:43.783Z,48.28
2018-08-09T09:08:52.308Z,47.21
2018-08-09T09:10:00.000Z,47.99
2018-08-09T09:11:08.707Z,46.53
2018-08-09T09:12:16.145Z,45.14
2018-08-09T09:13:24.211Z,46.29
2018-08-09T09:14:32.302Z,48.14
2018-08-09T09:15:40.446Z,51.14
2018-08-09T09:16:48.473Z,45.07
2018-08-09T09:17:56.573Z,48.85
2018-08-09T09:19:04.689Z,51.97
2018-08-09T09:20:15.541Z,52.89
2018-08-09T09:21:23.621Z,48.71
2018-08-09T09:22:32.572Z,51.61
2018-08-09T09:24:55.923Z,53.72
2018-08-09T09:26:02.437Z,55.44
2018-08-09T09:27:10.506Z,56.71
2018-08-09T09:28:18.587Z,58.17
2018-08-09T09:29:26.660Z,57.49
2018-08-09T09:30:36.365Z,57.59
2018-08-09T09:31:45.646Z,57.97
2018-08-09T09:32:53.726Z,54.08
2018-08-09T09:34:01.820Z,55.05
2018-08-09T09:35:09.888Z,55.54
2018-08-09T09:36:18.239Z,55.80
2018-08-09T09:37:26.349Z,56.97
2018-08-09T09:38:37.961Z,58.62
2018-08-09T09:39:42.216Z,55.90
2018-08-09T09:40:50.333Z,56.59
2018-08-09T09:41:58.377Z,57.56
2018-08-09T09:43:08.010Z,57.17
2018-08-09T09:44:14.551Z,57.85
2018-08-09T09:45:23.051Z,56.20
2018-08-09T09:46:30.800Z,56.29
2018-08-09T09:47:38.803Z,56.68
2018-08-09T09:48:46.971Z,56.68
2018-08-09T09:49:54.953Z,54.83
2018-08-09T09:51:03.017Z,56.59
2018-08-09T09:52:11.309Z,61.25
2018-08-09T09:53:19.378Z,59.31
2018-08-09T09:54:27.456Z,57.65
2018-08-09T09:55:35.526Z,58.53
2018-08-09T09:56:43.616Z,58.92
2018-08-09T09:57:51.721Z,56.49
2018-08-09T09:59:00.408Z,57.75
2018-08-09T10:00:07.864Z,58.33
2018-08-09T10:01:15.918Z,58.04
2018-08-09T10:02:24.061Z,59.31
2018-08-09T10:03:32.318Z,57.07
2018-08-09T10:04:40.413Z,57.17
2018-08-09T10:05:48.474Z,56.00
2018-08-09T10:06:56.617Z,56.29
2018-08-09T10:08:04.641Z,55.83
2018-08-09T10:09:12.897Z,60.02
2018-08-09T10:10:20.826Z,55.64
2018-08-09T10:11:28.885Z,56.90
2018-08-09T10:12:36.997Z,56.71
2018-08-09T10:13:45.052Z,55.93
2018-08-09T10:14:53.157Z,53.69
2018-08-09T10:16:01.449Z,54.86
2018-08-09T10:17:09.488Z,57.29
2018-08-09T10:18:17.567Z,54.86
2018-08-09T10:19:25.630Z,53.69
2018-08-09T10:20:34.090Z,54.86
2018-08-09T10:21:45.189Z,54.57
2018-08-09T10:22:49.880Z,53.99
2018-08-09T10:24:01.639Z,51.65
2018-08-09T10:25:06.060Z,52.59
2018-08-09T10:26:14.144Z,52.31
2018-08-09T10:27:22.203Z,52.98
2018-08-09T10:28:30.292Z,55.71
2018-08-09T10:29:38.365Z,56.77
2018-08-09T10:30:46.642Z,52.33
2018-08-09T10:31:54.721Z,52.53
2018-08-09T10:33:03.829Z,53.01
2018-08-09T10:34:10.924Z,55.54
2018-08-09T10:35:18.953Z,51.94
2018-08-09T10:36:27.641Z,50.12
2018-08-09T10:37:35.114Z,51.67
2018-08-09T10:38:43.168Z,55.05
2018-08-09T10:39:51.259Z,50.41
2018-08-09T10:41:00.529Z,52.94
2018-08-09T10:42:09.218Z,51.67
2018-08-09T10:43:18.568Z,49.54
2018-08-09T10:44:23.555Z,51.19
2018-08-09T10:45:31.673Z,53.52
2018-08-09T10:46:39.696Z,50.31
2018-08-09T10:47:47.891Z,49.34
2018-08-09T10:48:56.502Z,50.02
2018-08-09T10:50:04.541Z,49.15
2018-08-09T10:51:12.808Z,49.34
2018-08-09T10:52:20.903Z,51.77
2018-08-09T10:53:28.975Z,49.63
2018-08-09T10:54:37.065Z,50.02
2018-08-09T10:55:45.168Z,52.58
2018-08-09T10:56:53.207Z,52.09
2018-08-09T10:58:01.289Z,50.92
2018-08-09T10:59:09.365Z,51.99
2018-08-09T11:00:17.632Z,50.82
2018-08-09T11:01:25.607Z,50.95
2018-08-09T11:02:35.066Z,51.70
2018-08-09T11:03:41.681Z,47.15
2018-08-09T11:04:49.879Z,49.85
2018-08-09T11:05:57.852Z,50.46
2018-08-09T11:07:09.347Z,49.97
2018-08-09T11:08:14.010Z,50.07
2018-08-09T11:09:22.341Z,50.46
2018-08-09T11:10:30.490Z,49.19
2018-08-09T11:11:42.293Z,51.04
2018-08-09T11:12:50.469Z,52.44
2018-08-09T11:13:58.444Z,48.44
2018-08-09T11:15:06.597Z,49.02
2018-08-09T11:16:14.797Z,46.88
2018-08-09T11:17:22.975Z,45.20
2018-08-09T11:18:30.963Z,45.81
2018-08-09T11:19:39.158Z,45.78
2018-08-09T11:20:47.119Z,45.39
2018-08-09T11:21:55.191Z,46.56
2018-08-09T11:23:03.284Z,49.78
2018-08-09T11:24:11.381Z,48.41
2018-08-09T11:25:19.449Z,49.19
2018-08-09T11:26:27.518Z,50.38
2018-08-09T11:27:35.841Z,50.29
2018-08-09T11:28:43.836Z,49.99
2018-08-09T11:29:51.760Z,49.90
2018-08-09T11:30:59.856Z,50.78
2018-08-09T11:32:07.931Z,47.07
2018-08-09T11:33:15.989Z,48.14
2018-08-09T11:34:24.079Z,47.68
2018-08-09T11:35:32.201Z,49.34
2018-08-09T11:36:40.239Z,51.19
2018-08-09T11:37:48.400Z,47.97
2018-08-09T11:38:56.406Z,48.07
2018-08-09T11:40:04.509Z,46.02
2018-08-09T11:41:12.553Z,47.29
2018-08-09T11:42:20.675Z,48.46
2018-08-09T11:43:28.733Z,49.63
2018-08-09T11:44:36.805Z,49.73
2018-08-09T11:45:44.879Z,46.61
2018-08-09T11:46:52.975Z,48.07
2018-08-09T11:48:01.774Z,47.85
2018-08-09T11:49:09.161Z,48.34
2018-08-09T11:50:18.618Z,47.95
2018-08-09T11:51:25.261Z,47.58
2018-08-09T11:52:36.368Z,48.07
2018-08-09T11:53:41.440Z,46.02
2018-08-09T11:54:49.710Z,46.70
2018-08-09T11:55:57.612Z,44.27
2018-08-09T11:57:05.719Z,46.90
2018-08-09T11:58:13.796Z,46.41
2018-08-09T11:59:21.877Z,47.29
2018-08-09T12:00:30.000Z,46.83
2018-08-09T12:01:38.221Z,45.95
2018-08-09T12:02:46.345Z,47.12
2018-08-09T12:03:54.187Z,49.17
2018-08-09T12:05:02.246Z,46.63
2018-08-09T12:06:10.304Z,45.95
2018-08-09T12:07:18.478Z,46.83
2018-08-09T12:08:26.470Z,43.99
2018-08-09T12:09:34.589Z,45.17
2018-08-09T12:10:42.651Z,45.09
2018-08-09T12:11:52.511Z,44.29
2018-08-09T12:12:58.988Z,44.29
2018-08-09T12:14:08.076Z,45.26
2018-08-09T12:15:15.168Z,47.90
2018-08-09T12:16:23.235Z,44.19
2018-08-09T12:17:31.311Z,43.22
2018-08-09T12:18:42.803Z,43.99
2018-08-09T12:19:47.476Z,44.09
2018-08-09T12:20:55.564Z,43.99
2018-08-09T12:22:03.841Z,44.38
2018-08-09T12:23:13.213Z,41.97
2018-08-09T12:24:19.808Z,45.87
2018-08-09T12:25:28.043Z,46.26
2018-08-09T12:26:36.150Z,44.31
2018-08-09T12:27:44.261Z,46.07
2018-08-09T12:28:52.315Z,45.48
2018-08-09T12:30:00.389Z,43.92
2018-08-09T12:31:08.485Z,42.16
2018-08-09T12:32:16.571Z,43.63
2018-08-09T12:33:24.633Z,45.78
2018-08-09T12:34:35.971Z,44.31
2018-08-09T12:35:40.805Z,44.21
2018-08-09T12:36:48.888Z,44.21
2018-08-09T12:37:56.965Z,43.33
2018-08-09T12:39:05.377Z,43.04
2018-08-09T12:40:13.335Z,43.90
2018-08-09T12:41:21.394Z,44.97
2018-08-09T12:42:29.468Z,43.41
2018-08-09T12:43:37.562Z,43.99
2018-08-09T12:44:45.722Z,43.14
2018-08-09T12:45:53.728Z,44.24
2018-08-09T12:47:03.954Z,44.24
2018-08-09T12:48:10.352Z,43.48
2018-08-09T12:49:19.603Z,43.77
2018-08-09T12:50:26.245Z,43.46
2018-08-09T12:52:47.273Z,43.08
2018-08-09T12:53:55.489Z,40.45
2018-08-09T12:55:03.849Z,44.35
2018-08-09T12:56:11.884Z,40.27
2018-08-09T12:57:19.972Z,40.08
2018-08-09T12:58:28.027Z,39.20
2018-08-09T12:59:36.112Z,38.42
2018-08-09T13:00:44.264Z,39.08
2018-08-09T13:01:52.643Z,40.25
2018-08-09T13:03:03.981Z,41.33
2018-08-09T13:04:08.454Z,42.21
2018-08-09T13:05:16.524Z,40.55
2018-08-09T13:06:24.638Z,41.60
2018-08-09T13:07:32.688Z,42.87
2018-08-09T13:08:40.833Z,41.89
2018-08-09T13:09:48.853Z,41.80
2018-08-09T13:10:56.938Z,41.99
2018-08-09T13:12:05.200Z,41.80
2018-08-09T13:13:13.325Z,44.73
2018-08-09T13:14:21.372Z,43.26
2018-08-09T13:15:29.468Z,40.82
2018-08-09T13:16:37.796Z,43.46
2018-08-09T13:17:45.606Z,44.04
2018-08-09T13:18:53.710Z,43.38
2018-08-09T13:20:01.764Z,43.26
2018-08-09T13:21:13.287Z,42.09
2018-08-09T13:22:17.930Z,41.60
2018-08-09T13:23:27.784Z,44.34
2018-08-09T13:24:34.096Z,43.65
2018-08-09T13:25:42.192Z,43.43
2018-08-09T13:26:50.256Z,43.07
2018-08-09T13:27:58.352Z,45.00
2018-08-09T13:29:06.785Z,39.72
2018-08-09T13:30:14.558Z,42.16
2018-08-09T13:31:22.656Z,41.58
2018-08-09T13:32:30.659Z,39.92
2018-08-09T13:33:38.785Z,41.27
2018-08-09T13:34:46.913Z,41.27
2018-08-09T13:35:54.887Z,44.38
2018-08-09T13:37:06.565Z,43.02
2018-08-09T13:38:11.075Z,42.93
2018-08-09T13:39:19.162Z,43.99
2018-08-09T13:40:27.202Z,43.12
2018-08-09T13:41:35.296Z,44.19
2018-08-09T13:42:43.476Z,42.34
2018-08-09T13:43:51.474Z,42.14
2018-08-09T13:44:59.546Z,42.14
2018-08-09T13:46:08.015Z,44.19
2018-08-09T13:47:15.674Z,43.22
2018-08-09T13:48:23.803Z,43.80
2018-08-09T13:49:31.849Z,43.80
2018-08-09T13:50:39.936Z,43.51
2018-08-09T13:51:48.226Z,43.32
2018-08-09T13:52:56.422Z,44.19
2018-08-09T13:54:04.368Z,43.59
2018-08-09T13:55:12.521Z,45.05
2018-08-09T13:56:20.541Z,43.39
2018-08-09T13:57:28.628Z,44.34
2018-08-09T13:58:38.369Z,42.32
2018-08-09T13:59:44.984Z,41.73
2018-08-09T14:00:53.181Z,44.27
2018-08-09T14:02:01.128Z,43.39
2018-08-09T14:03:10.708Z,42.61
2018-08-09T14:04:20.553Z,44.97
2018-08-09T14:05:25.390Z,45.75
2018-08-09T14:06:33.450Z,46.04
2018-08-09T14:07:41.563Z,46.92
2018-08-09T14:08:49.857Z,46.83
2018-08-09T14:09:57.690Z,46.83
2018-08-09T14:11:05.762Z,46.83
2018-08-09T14:12:13.867Z,44.12
2018-08-09T14:13:21.955Z,41.95
2018-08-09T14:14:30.017Z,43.51
2018-08-09T14:15:38.103Z,43.49
2018-08-09T14:16:46.166Z,45.05
2018-08-09T14:17:54.324Z,45.42
2018-08-09T14:19:02.331Z,46.10
2018-08-09T14:20:10.419Z,47.05
2018-08-09T14:21:18.493Z,46.17
2018-08-09T14:22:28.199Z,46.76
2018-08-09T14:23:34.670Z,46.64
2018-08-09T14:24:44.251Z,47.61
2018-08-09T14:25:53.967Z,46.54
2018-08-09T14:26:58.997Z,48.19
2018-08-09T14:28:06.985Z,47.10
2018-08-09T14:29:15.061Z,48.19
2018-08-09T14:30:23.137Z,49.05
2018-08-09T14:31:31.218Z,47.88
2018-08-09T14:32:39.296Z,48.75
2018-08-09T14:33:47.383Z,48.95
2018-08-09T14:34:55.536Z,50.38
2018-08-09T14:36:06.874Z,50.19
2018-08-09T14:37:11.628Z,52.11
2018-08-09T14:38:19.702Z,53.06
2018-08-09T14:39:27.884Z,52.86